Time;durP1;ratioP1;P1;durP2;ratioP2;P2;SDS_P1;SDS_P2;PMS_P1;PMS_P2;Temp;Humidity;BMP_temperature;BMP_pressure;BME280_temperature;BME280_humidity;BME280_pressure;Samples;Min_cycle;Max_cycle;Signal;HPM_P1;HPM_P2
2023/04/23 00:01:41;;;;;;;13.40;8.80;;;;;;;7.31;71.36;100273.94;105490;277;39431;-71
2023/04/23 00:04:17;;;;;;;15.60;9.10;;;;;;;7.31;71.19;100271.33;105915;277;38839;-71
2023/04/23 00:06:51;;;;;;;16.70;7.70;;;;;;;7.31;71.21;100268.55;105395;277;174675;-70
2023/04/23 00:09:25;;;;;;;11.40;7.60;;;;;;;7.30;71.23;100269.81;105487;277;39659;-70
2023/04/23 00:12:01;;;;;;;12.90;7.80;;;;;;;7.30;71.14;100270.15;105529;277;38508;-69
2023/04/23 00:14:36;;;;;;;16.40;8.10;;;;;;;7.28;71.14;100267.42;105464;277;38226;-69
2023/04/23 00:17:10;;;;;;;10.90;7.70;;;;;;;7.26;71.09;100267.30;105491;277;39657;-69
2023/04/23 00:19:44;;;;;;;10.30;8.30;;;;;;;7.24;71.09;100267.52;105298;279;39548;-70
2023/04/23 00:22:19;;;;;;;10.50;7.90;;;;;;;7.20;71.00;100265.89;105511;278;38284;-69
2023/04/23 00:24:59;;;;;;;12.10;7.90;;;;;;;7.17;71.14;100266.15;105214;277;172179;-69
2023/04/23 00:27:33;;;;;;;14.20;8.10;;;;;;;7.18;71.27;100263.34;105491;277;38246;-69
2023/04/23 00:30:10;;;;;;;13.60;8.30;;;;;;;7.21;71.06;100258.39;105384;278;38268;-69
2023/04/23 00:32:45;;;;;;;13.00;8.80;;;;;;;7.26;71.02;100257.23;105561;277;39292;-69
2023/04/23 00:35:19;;;;;;;14.50;8.50;;;;;;;7.31;70.86;100255.90;105524;277;38314;-71
2023/04/23 00:37:56;;;;;;;13.40;8.60;;;;;;;7.32;70.78;100257.58;105534;277;38275;-71
2023/04/23 00:40:31;;;;;;;13.00;8.40;;;;;;;7.33;70.59;100252.36;105303;279;38577;-72
2023/04/23 00:43:06;;;;;;;13.50;8.30;;;;;;;7.31;70.51;100254.52;105512;277;39103;-72
2023/04/23 00:45:40;;;;;;;11.60;8.40;;;;;;;7.29;70.36;100253.36;105291;277;39384;-69
2023/04/23 00:48:14;;;;;;;12.00;8.50;;;;;;;7.31;70.26;100253.81;105499;277;39414;-69
2023/04/23 00:50:48;;;;;;;13.80;8.50;;;;;;;7.31;70.23;100258.32;105922;277;39901;-70
2023/04/23 00:53:22;;;;;;;13.00;9.80;;;;;;;7.31;70.21;100254.66;105812;277;189330;-70
2023/04/23 00:55:56;;;;;;;16.10;10.00;;;;;;;7.35;69.93;100254.93;105908;277;39515;-71
2023/04/23 00:58:30;;;;;;;13.40;9.20;;;;;;;7.40;69.96;100258.09;105526;277;38833;-71
2023/04/23 01:01:04;;;;;;;14.10;9.50;;;;;;;7.42;69.86;100263.06;105479;277;38387;-69
2023/04/23 01:03:39;;;;;;;15.50;9.50;;;;;;;7.43;69.72;100259.03;105449;277;38260;-69
2023/04/23 01:06:13;;;;;;;11.30;8.80;;;;;;;7.45;69.57;100258.80;105909;277;38237;-71
2023/04/23 01:08:48;;;;;;;13.90;8.60;;;;;;;7.48;69.40;100258.04;105473;277;39912;-73
2023/04/23 01:11:22;;;;;;;15.10;9.40;;;;;;;7.49;69.33;100262.68;105240;278;907555;-70
2023/04/23 01:13:56;;;;;;;15.10;8.90;;;;;;;7.47;69.15;100264.67;105905;278;39964;-70
2023/04/23 01:16:30;;;;;;;15.80;9.10;;;;;;;7.46;69.36;100263.46;105502;277;39589;-70
2023/04/23 01:19:05;;;;;;;12.40;8.60;;;;;;;7.42;69.31;100262.87;105884;277;38752;-71
2023/04/23 01:21:40;;;;;;;10.90;8.50;;;;;;;7.42;69.32;100262.02;105359;278;38866;-72
2023/04/23 01:24:15;;;;;;;15.80;8.60;;;;;;;7.42;69.26;100264.63;105488;277;39403;-72
2023/04/23 01:26:49;;;;;;;16.60;9.30;;;;;;;7.40;69.35;100265.38;105351;277;174602;-71
2023/04/23 01:29:24;;;;;;;14.90;8.80;;;;;;;7.37;69.45;100262.84;105486;277;39431;-71
2023/04/23 01:31:59;;;;;;;13.80;9.30;;;;;;;7.33;69.36;100264.00;105525;277;39469;-71
2023/04/23 01:34:33;;;;;;;14.30;9.90;;;;;;;7.30;69.35;100260.60;105477;277;38235;-72
2023/04/23 01:37:10;;;;;;;12.50;8.40;;;;;;;7.29;69.30;100258.02;104880;277;802389;-71
2023/04/23 01:39:44;;;;;;;14.40;9.40;;;;;;;7.31;69.30;100259.89;105531;277;39512;-72
2023/04/23 01:42:23;;;;;;;13.10;8.50;;;;;;;7.30;69.42;100259.37;105525;277;39431;-69
2023/04/23 01:45:00;;;;;;;12.60;8.90;;;;;;;7.29;69.63;100259.58;105522;277;38843;-70
2023/04/23 01:47:40;;;;;;;15.80;9.50;;;;;;;7.27;69.63;100255.31;105935;277;39403;-69
2023/04/23 01:50:18;;;;;;;11.60;9.10;;;;;;;7.26;69.67;100256.01;105368;278;38200;-71
2023/04/23 01:53:01;;;;;;;14.70;10.20;;;;;;;7.24;69.64;100257.99;105580;277;38926;-70
2023/04/23 01:55:37;;;;;;;14.00;9.70;;;;;;;7.20;69.51;100260.33;105300;279;38584;-70
2023/04/23 01:58:11;;;;;;;15.10;9.30;;;;;;;7.22;69.55;100263.05;105561;278;38249;-70
2023/04/23 02:00:47;;;;;;;14.50;9.10;;;;;;;7.24;69.42;100260.23;105583;278;38268;-71
2023/04/23 02:03:21;;;;;;;15.70;10.10;;;;;;;7.27;69.44;100261.38;105549;278;39564;-72
2023/04/23 02:05:57;;;;;;;15.50;9.80;;;;;;;7.28;69.48;100263.08;105923;278;38246;-71
2023/04/23 02:08:32;;;;;;;15.10;10.60;;;;;;;7.29;69.43;100262.54;105498;277;39686;-72
2023/04/23 02:11:07;;;;;;;17.30;10.10;;;;;;;7.29;69.34;100262.02;105946;277;38423;-69
2023/04/23 02:13:41;;;;;;;15.80;10.40;;;;;;;7.28;69.29;100259.09;105527;277;38934;-69
2023/04/23 02:16:16;;;;;;;12.90;9.60;;;;;;;7.30;69.38;100260.27;105940;277;39325;-71
2023/04/23 02:18:54;;;;;;;15.40;10.70;;;;;;;7.32;69.27;100258.11;105265;277;38460;-70
2023/04/23 02:21:28;;;;;;;16.40;10.80;;;;;;;7.33;69.28;100258.08;105535;277;38723;-71
2023/04/23 02:24:04;;;;;;;13.90;10.40;;;;;;;7.33;69.25;100258.96;105125;277;38563;-71
2023/04/23 02:26:38;;;;;;;13.90;10.00;;;;;;;7.32;69.27;100259.33;105176;280;38910;-71
2023/04/23 02:29:13;;;;;;;15.40;10.20;;;;;;;7.30;69.28;100257.84;105544;277;38386;-72
2023/04/23 02:31:47;;;;;;;15.50;10.80;;;;;;;7.26;69.22;100258.25;105273;279;38278;-69
2023/04/23 02:34:24;;;;;;;15.20;10.10;;;;;;;7.25;69.16;100256.20;105342;278;38451;-70
2023/04/23 02:36:58;;;;;;;19.60;10.20;;;;;;;7.28;69.19;100254.24;105923;277;38315;-72
2023/04/23 02:39:32;;;;;;;16.60;10.80;;;;;;;7.31;69.17;100253.12;105588;277;38414;-72
2023/04/23 02:42:06;;;;;;;14.70;10.90;;;;;;;7.36;69.05;100254.55;105916;277;38608;-69
2023/04/23 02:44:41;;;;;;;17.20;11.40;;;;;;;7.39;68.97;100252.04;105523;277;38405;-69
2023/04/23 02:47:16;;;;;;;16.90;10.80;;;;;;;7.41;68.83;100252.48;105543;277;38389;-70
2023/04/23 02:49:52;;;;;;;17.20;11.60;;;;;;;7.43;68.66;100252.95;105542;278;38218;-70
2023/04/23 02:52:28;;;;;;;14.50;10.80;;;;;;;7.47;68.61;100250.76;105532;278;38369;-70
2023/04/23 02:55:03;;;;;;;14.00;10.80;;;;;;;7.53;68.46;100252.70;105540;277;38269;-71
2023/04/23 02:57:38;;;;;;;16.60;10.70;;;;;;;7.59;68.40;100251.14;105574;277;38641;-71
2023/04/23 03:00:15;;;;;;;14.90;11.20;;;;;;;7.64;68.26;100250.31;105530;277;39389;-70
2023/04/23 03:02:50;;;;;;;17.20;11.70;;;;;;;7.65;68.12;100249.22;105541;278;38487;-70
2023/04/23 03:05:29;;;;;;;17.30;11.10;;;;;;;7.65;67.99;100253.40;105506;277;38400;-71
2023/04/23 03:08:03;;;;;;;16.50;11.10;;;;;;;7.62;67.87;100252.43;105364;278;38239;-73
2023/04/23 03:10:38;;;;;;;15.10;10.60;;;;;;;7.58;67.87;100252.39;105558;277;38297;-71
2023/04/23 03:13:14;;;;;;;15.80;10.70;;;;;;;7.57;67.92;100252.76;105582;277;38482;-73
2023/04/23 03:15:49;;;;;;;14.10;9.80;;;;;;;7.57;68.09;100248.61;105352;277;39096;-71
2023/04/23 03:18:23;;;;;;;16.20;10.80;;;;;;;7.57;68.16;100249.62;105516;277;38669;-72
2023/04/23 03:20:58;;;;;;;17.10;11.30;;;;;;;7.59;67.87;100246.11;105525;277;38383;-71
2023/04/23 03:23:33;;;;;;;17.80;11.20;;;;;;;7.62;67.86;100245.66;105507;277;38358;-71
2023/04/23 03:26:08;;;;;;;18.20;11.70;;;;;;;7.62;67.79;100246.53;105457;277;39444;-70
2023/04/23 03:28:41;;;;;;;15.20;10.80;;;;;;;7.63;67.72;100240.96;105295;279;39341;-72
2023/04/23 03:31:16;;;;;;;15.40;10.60;;;;;;;7.65;67.64;100243.70;105893;277;38540;-70
2023/04/23 03:33:51;;;;;;;17.80;10.50;;;;;;;7.70;67.44;100242.65;105500;277;38403;-70
2023/04/23 03:36:29;;;;;;;18.20;12.00;;;;;;;7.76;67.37;100244.74;105308;278;39435;-70
2023/04/23 03:39:03;;;;;;;17.50;11.60;;;;;;;7.83;67.21;100242.66;105528;277;38264;-69
2023/04/23 03:41:38;;;;;;;14.90;10.30;;;;;;;7.87;67.19;100243.73;105500;277;39388;-70
2023/04/23 03:44:13;;;;;;;15.70;11.10;;;;;;;7.92;67.00;100238.91;105494;277;38258;-70
2023/04/23 03:46:47;;;;;;;18.80;11.00;;;;;;;7.96;66.86;100241.20;105935;277;38268;-70
2023/04/23 03:49:21;;;;;;;16.80;11.30;;;;;;;7.98;66.80;100243.26;105515;277;38269;-70
2023/04/23 03:51:56;;;;;;;17.60;11.00;;;;;;;7.99;66.56;100238.37;105498;277;38460;-72
2023/04/23 03:54:33;;;;;;;15.10;10.50;;;;;;;8.01;66.55;100238.83;105536;277;38943;-73
2023/04/23 03:57:08;;;;;;;16.20;11.10;;;;;;;8.04;66.65;100239.09;105843;277;174634;-71
2023/04/23 03:59:43;;;;;;;15.60;11.00;;;;;;;8.07;66.63;100237.77;105517;277;39449;-72
2023/04/23 04:02:17;;;;;;;15.40;10.40;;;;;;;8.12;66.68;100237.79;105509;277;38915;-69
2023/04/23 04:04:53;;;;;;;13.00;9.50;;;;;;;8.16;66.76;100240.09;105527;277;39558;-70
2023/04/23 04:07:28;;;;;;;16.10;10.80;;;;;;;8.23;66.70;100241.13;105475;277;38595;-71
2023/04/23 04:10:03;;;;;;;18.60;11.10;;;;;;;8.30;66.60;100239.86;105353;278;38268;-70
2023/04/23 04:12:38;;;;;;;14.50;10.70;;;;;;;8.38;66.64;100242.06;105495;277;38750;-70
2023/04/23 04:15:14;;;;;;;16.20;10.90;;;;;;;8.52;66.43;100240.41;105491;277;38372;-70
2023/04/23 04:17:55;;;;;;;15.20;11.00;;;;;;;8.66;66.34;100243.12;105272;277;38284;-70
2023/04/23 04:20:30;;;;;;;14.70;10.70;;;;;;;8.84;66.25;100241.63;105509;277;38430;-70
2023/04/23 04:23:05;;;;;;;16.70;10.90;;;;;;;9.08;66.25;100242.75;105948;277;38820;-70
2023/04/23 04:25:39;;;;;;;20.20;10.80;;;;;;;9.57;66.73;100241.04;105485;277;38223;-72
2023/04/23 04:28:16;;;;;;;17.00;10.30;;;;;;;10.11;65.89;100242.53;105329;278;38243;-72
2023/04/23 04:30:56;;;;;;;15.10;10.90;;;;;;;10.61;65.15;100238.50;105523;278;38258;-73
2023/04/23 04:33:31;;;;;;;15.90;11.00;;;;;;;11.18;63.63;100234.21;105501;277;38227;-73
2023/04/23 04:36:08;;;;;;;14.80;10.20;;;;;;;11.91;63.65;100235.04;105279;279;39357;-71
2023/04/23 04:38:42;;;;;;;14.60;10.20;;;;;;;13.10;62.48;100232.13;105328;278;39296;-70
2023/04/23 04:41:18;;;;;;;13.90;10.00;;;;;;;14.23;59.48;100229.31;105949;277;38526;-71
2023/04/23 04:43:53;;;;;;;14.60;10.40;;;;;;;15.27;56.69;100220.88;105508;278;39910;-71
2023/04/23 04:46:28;;;;;;;14.50;10.80;;;;;;;16.28;53.70;100223.13;105503;277;39431;-70
2023/04/23 04:49:03;;;;;;;14.40;10.00;;;;;;;17.22;51.48;100224.84;105310;277;38295;-70
2023/04/23 04:51:43;;;;;;;12.80;9.70;;;;;;;18.03;48.30;100225.59;105509;277;38268;-71
2023/04/23 04:54:22;;;;;;;14.50;9.90;;;;;;;18.68;45.01;100224.20;105512;277;40075;-71
2023/04/23 04:57:01;;;;;;;13.70;11.00;;;;;;;19.27;44.13;100223.68;105506;278;38610;-73
2023/04/23 04:59:37;;;;;;;13.10;10.30;;;;;;;19.85;42.35;100225.58;105937;277;38325;-74
2023/04/23 05:02:11;;;;;;;12.80;10.20;;;;;;;20.38;40.88;100219.70;105505;278;38445;-73
2023/04/23 05:04:48;;;;;;;15.80;10.70;;;;;;;20.54;39.44;100221.95;105348;277;38488;-74
2023/04/23 05:07:26;;;;;;;14.20;10.30;;;;;;;20.38;38.23;100218.10;105509;277;38463;-74
2023/04/23 05:10:05;;;;;;;15.50;10.50;;;;;;;20.37;37.89;100214.51;105934;277;38280;-72
2023/04/23 05:13:12;;;;;;;16.20;10.90;;;;;;;20.37;38.18;100213.22;105511;277;38429;-72
2023/04/23 05:15:50;;;;;;;14.00;9.80;;;;;;;20.50;37.61;100216.48;105506;277;39927;-73
2023/04/23 05:18:24;;;;;;;11.30;9.70;;;;;;;20.57;36.91;100215.87;105895;277;38349;-73
2023/04/23 05:20:59;;;;;;;17.70;10.90;;;;;;;20.53;36.65;100214.64;105301;278;38227;-71
2023/04/23 05:23:33;;;;;;;10.60;9.50;;;;;;;20.54;36.72;100213.98;105476;277;38478;-72
2023/04/23 05:26:06;;;;;;;12.60;9.60;;;;;;;20.60;36.76;100215.45;105507;277;39209;-70
2023/04/23 05:28:41;;;;;;;10.90;9.60;;;;;;;21.06;36.77;100213.05;105469;277;38518;-70
2023/04/23 05:31:15;;;;;;;10.50;9.20;;;;;;;21.74;35.93;100212.77;105340;279;38468;-72
2023/04/23 05:33:50;;;;;;;11.10;9.20;;;;;;;22.28;34.73;100213.70;105457;278;38264;-73
2023/04/23 05:36:24;;;;;;;13.30;9.50;;;;;;;22.63;33.02;100212.29;105882;285;38438;-71
2023/04/23 05:39:02;;;;;;;11.70;9.40;;;;;;;23.01;33.48;100212.91;105469;277;39863;-71
2023/04/23 05:41:40;;;;;;;11.40;9.20;;;;;;;23.67;32.73;100205.64;105413;277;38253;-74
2023/04/23 05:44:24;;;;;;;11.90;9.10;;;;;;;24.35;31.47;100201.78;105523;277;38350;-74
2023/04/23 05:47:01;;;;;;;12.10;9.10;;;;;;;24.92;30.68;100204.28;105505;277;38289;-71
2023/04/23 05:49:35;;;;;;;10.40;8.50;;;;;;;25.59;29.54;100205.48;105488;278;39859;-71
2023/04/23 05:52:09;;;;;;;10.30;8.10;;;;;;;26.15;28.32;100205.85;105307;278;39946;-71
2023/04/23 05:54:43;;;;;;;13.60;8.70;;;;;;;26.59;27.52;100207.27;105519;278;39500;-72
2023/04/23 05:57:17;;;;;;;10.10;7.90;;;;;;;26.98;26.93;100203.83;105934;277;40191;-71
2023/04/23 05:59:52;;;;;;;8.70;7.90;;;;;;;27.51;25.75;100203.39;105499;277;39042;-71
2023/04/23 06:02:27;;;;;;;8.30;7.30;;;;;;;27.80;24.93;100202.80;105906;277;39678;-72
2023/04/23 06:05:01;;;;;;;9.20;7.80;;;;;;;28.11;25.09;100197.85;105514;277;38436;-72
2023/04/23 06:07:36;;;;;;;9.40;7.60;;;;;;;28.48;24.49;100197.03;105538;277;38188;-71
2023/04/23 06:10:12;;;;;;;10.20;7.30;;;;;;;28.74;23.16;100197.18;105527;277;39637;-72
2023/04/23 06:12:46;;;;;;;13.20;7.60;;;;;;;28.71;23.60;100198.41;105333;279;39598;-72
2023/04/23 06:15:25;;;;;;;8.20;7.40;;;;;;;29.06;23.28;100196.70;105532;277;38241;-72
2023/04/23 06:18:00;;;;;;;9.70;7.60;;;;;;;29.43;22.77;100195.52;105275;279;38262;-72
2023/04/23 06:20:35;;;;;;;8.90;7.10;;;;;;;29.86;22.42;100201.42;105545;277;38251;-73
2023/04/23 06:23:11;;;;;;;8.00;6.90;;;;;;;30.24;21.92;100203.76;105250;278;38268;-75
2023/04/23 06:25:45;;;;;;;12.20;8.10;;;;;;;30.48;20.51;100205.64;105557;277;38211;-73
2023/04/23 06:28:20;;;;;;;10.40;6.80;;;;;;;30.29;20.94;100204.77;105932;286;38229;-73
2023/04/23 06:30:55;;;;;;;7.40;6.60;;;;;;;30.42;20.95;100204.99;105552;277;38722;-72
2023/04/23 06:33:31;;;;;;;7.10;6.10;;;;;;;30.77;20.67;100204.73;105342;279;38245;-72
2023/04/23 06:36:09;;;;;;;8.80;5.80;;;;;;;30.96;20.28;100202.72;105536;277;39415;-73
2023/04/23 06:38:43;;;;;;;6.90;6.20;;;;;;;31.23;20.01;100197.77;105489;270;39392;-73
2023/04/23 06:41:17;;;;;;;7.30;6.00;;;;;;;31.49;19.13;100197.83;105445;278;39641;-73
2023/04/23 06:43:57;;;;;;;7.40;6.30;;;;;;;31.57;19.33;100193.67;105514;277;39408;-73
2023/04/23 06:46:31;;;;;;;8.40;5.90;;;;;;;31.50;19.10;100192.13;105506;277;39973;-73
2023/04/23 06:49:05;;;;;;;6.90;5.70;;;;;;;31.12;19.53;100193.58;105502;277;38915;-73
2023/04/23 06:51:40;;;;;;;6.00;5.20;;;;;;;31.23;19.95;100188.26;105493;277;38271;-73
2023/04/23 06:54:14;;;;;;;7.20;5.10;;;;;;;31.18;18.82;100191.85;105304;278;38263;-73
2023/04/23 06:56:48;;;;;;;6.80;5.60;;;;;;;30.64;19.52;100190.89;105498;277;39381;-73
2023/04/23 06:59:21;;;;;;;7.20;5.60;;;;;;;30.28;19.43;100188.81;105492;277;38512;-73
2023/04/23 07:01:55;;;;;;;6.30;5.00;;;;;;;29.93;20.16;100184.89;105507;277;39927;-73
2023/04/23 07:04:29;;;;;;;6.60;5.00;;;;;;;29.82;20.18;100186.65;105900;277;39141;-73
2023/04/23 07:07:05;;;;;;;7.00;5.10;;;;;;;29.62;19.75;100189.07;105473;277;39425;-74
2023/04/23 07:09:39;;;;;;;7.90;5.60;;;;;;;29.46;19.89;100186.88;105460;277;38438;-75
2023/04/23 07:12:13;;;;;;;5.80;5.00;;;;;;;29.35;19.98;100186.92;105281;279;38243;-74
2023/04/23 07:14:48;;;;;;;8.90;4.90;;;;;;;29.41;20.64;100181.83;105418;278;39176;-75
2023/04/23 07:17:25;;;;;;;7.30;5.40;;;;;;;29.81;20.73;100180.38;105450;279;38652;-72
2023/04/23 07:19:59;;;;;;;6.70;4.50;;;;;;;30.34;19.65;100182.07;105432;279;38482;-73
2023/04/23 07:22:33;;;;;;;5.40;4.90;;;;;;;30.52;19.20;100179.72;105393;278;38294;-74
2023/04/23 07:25:09;;;;;;;5.30;4.80;;;;;;;30.76;19.68;100182.17;105259;279;38266;-74
2023/04/23 07:27:43;;;;;;;5.80;5.00;;;;;;;31.17;19.39;100178.11;105408;279;38347;-74
2023/04/23 07:30:19;;;;;;;6.80;5.30;;;;;;;31.46;18.36;100176.37;105257;279;39448;-74
2023/04/23 07:32:54;;;;;;;5.60;5.00;;;;;;;31.40;17.92;100176.88;105431;279;39436;-74
2023/04/23 07:35:28;;;;;;;5.90;5.10;;;;;;;31.40;17.94;100174.46;105443;278;38327;-74
2023/04/23 07:38:03;;;;;;;6.00;5.40;;;;;;;31.52;17.69;100173.84;105212;279;887107;-74
2023/04/23 07:40:37;;;;;;;6.00;4.90;;;;;;;31.64;17.57;100171.98;105297;278;173260;-74
2023/04/23 07:43:12;;;;;;;5.50;5.00;;;;;;;31.68;17.84;100169.21;105427;278;38567;-74
2023/04/23 07:45:49;;;;;;;5.70;5.20;;;;;;;31.59;17.13;100165.51;105832;279;38305;-74
2023/04/23 07:48:23;;;;;;;6.00;4.90;;;;;;;31.57;18.14;100165.13;105422;278;39725;-75
2023/04/23 07:50:57;;;;;;;5.20;4.70;;;;;;;31.96;17.83;100164.66;105467;279;39238;-76
2023/04/23 07:53:32;;;;;;;5.80;5.20;;;;;;;32.24;17.88;100161.79;105426;279;39887;-76
2023/04/23 07:56:06;;;;;;;5.80;4.70;;;;;;;32.49;17.61;100162.33;105840;278;39466;-74
2023/04/23 07:58:41;;;;;;;5.30;4.80;;;;;;;32.92;17.94;100161.91;105306;279;38220;-74
2023/04/23 08:01:15;;;;;;;6.40;4.90;;;;;;;33.38;17.17;100163.33;105435;278;38527;-73
2023/04/23 08:03:49;;;;;;;5.50;4.80;;;;;;;33.66;16.53;100164.73;105428;286;38294;-73
2023/04/23 08:06:25;;;;;;;5.30;4.70;;;;;;;33.84;16.52;100164.48;105424;278;39443;-75
2023/04/23 08:09:00;;;;;;;7.00;4.70;;;;;;;34.08;15.64;100166.38;105432;278;38804;-76
2023/04/23 08:11:36;;;;;;;7.70;4.80;;;;;;;34.11;15.53;100164.54;105439;277;38566;-76
2023/04/23 08:14:10;;;;;;;5.70;4.40;;;;;;;34.20;15.55;100165.73;105473;277;38859;-76
2023/04/23 08:16:44;;;;;;;4.90;4.50;;;;;;;34.12;15.47;100162.34;105518;277;39466;-74
2023/04/23 08:19:18;;;;;;;5.60;4.40;;;;;;;33.99;15.28;100156.80;105360;278;38272;-75
2023/04/23 08:21:52;;;;;;;5.10;4.30;;;;;;;34.16;15.87;100159.56;105882;278;38970;-75
2023/04/23 08:24:26;;;;;;;4.90;4.20;;;;;;;34.66;15.52;100157.33;105511;277;39526;-77
2023/04/23 08:27:00;;;;;;;6.20;4.10;;;;;;;34.80;15.08;100153.67;105366;277;39900;-76
2023/04/23 08:29:35;;;;;;;6.00;3.70;;;;;;;34.95;14.81;100148.09;105487;277;38433;-76
2023/04/23 08:32:10;;;;;;;6.00;3.60;;;;;;;35.01;14.48;100147.15;105323;277;38800;-75
2023/04/23 08:34:45;;;;;;;4.80;3.70;;;;;;;35.03;14.57;100143.21;105299;279;38249;-75
2023/04/23 08:37:19;;;;;;;5.20;3.70;;;;;;;35.15;14.52;100140.95;105419;277;173136;-75
2023/04/23 08:39:55;;;;;;;3.90;3.50;;;;;;;35.38;14.55;100140.30;105483;277;40347;-75
2023/04/23 08:42:34;;;;;;;4.90;3.40;;;;;;;35.52;13.64;100144.42;105515;277;40111;-73
2023/04/23 08:45:11;;;;;;;4.20;3.60;;;;;;;35.23;13.63;100139.53;105534;277;39637;-72
2023/04/23 08:47:46;;;;;;;4.60;3.90;;;;;;;35.21;13.83;100137.05;105949;278;38541;-73
2023/04/23 08:50:23;;;;;;;3.70;3.30;;;;;;;35.32;14.10;100135.92;105509;277;38445;-75
2023/04/23 08:52:59;;;;;;;7.20;3.60;;;;;;;35.32;13.31;100134.50;105487;277;38437;-75
2023/04/23 08:55:35;;;;;;;3.50;3.20;;;;;;;35.10;13.20;100131.45;105956;277;38299;-75
2023/04/23 08:58:09;;;;;;;5.00;3.60;;;;;;;34.98;13.96;100124.13;105346;278;39376;-75
2023/04/23 09:00:44;;;;;;;5.80;3.90;;;;;;;35.13;13.77;100124.89;105359;277;39399;-76
2023/04/23 09:03:25;;;;;;;4.00;3.20;;;;;;;35.25;13.93;100120.05;105483;277;38525;-75
2023/04/23 09:06:00;;;;;;;3.70;3.10;;;;;;;35.32;13.60;100120.81;105507;277;39401;-77
2023/04/23 09:08:35;;;;;;;3.70;3.30;;;;;;;35.16;13.24;100122.11;105514;277;39479;-78
2023/04/23 09:11:09;;;;;;;4.90;3.60;;;;;;;34.94;13.32;100118.84;105485;277;39523;-74
2023/04/23 09:13:43;;;;;;;4.10;3.00;;;;;;;34.73;13.22;100116.77;105482;277;38223;-74
2023/04/23 09:16:17;;;;;;;3.50;3.20;;;;;;;34.65;13.57;100121.27;105471;278;38461;-74
2023/04/23 09:18:51;;;;;;;5.50;3.50;;;;;;;34.54;13.17;100114.27;105479;277;39495;-75
2023/04/23 09:21:33;;;;;;;4.60;2.90;;;;;;;34.23;13.33;100109.89;101742;306;546439;-76
2023/04/23 09:24:13;;;;;;;5.10;2.80;;;;;;;33.70;13.67;100118.04;102973;288;38231;-75
2023/04/23 09:27:01;;;;;;;3.80;3.00;;;;;;;33.33;14.35;100113.27;102982;290;38431;-73
2023/04/23 09:29:35;;;;;;;3.90;2.90;;;;;;;33.08;14.98;100108.61;102978;288;38343;-73
2023/04/23 09:32:14;;;;;;;3.40;2.90;;;;;;;32.70;14.60;100112.20;103005;288;38362;-75
2023/04/23 09:34:58;;;;;;;3.60;3.10;;;;;;;32.16;15.36;100108.08;101979;285;1724947;-74
2023/04/23 09:37:34;;;;;;;3.80;3.30;;;;;;;31.90;16.07;100106.26;103414;285;38409;-76
2023/04/23 09:40:15;;;;;;;6.50;2.90;;;;;;;31.53;15.85;100110.25;103656;281;38297;-76
2023/04/23 09:42:53;;;;;;;3.40;2.70;;;;;;;30.96;16.05;100109.14;103652;281;38714;-74
2023/04/23 09:45:28;;;;;;;4.00;2.90;;;;;;;30.58;16.97;100108.02;103659;281;38680;-75
2023/04/23 09:48:09;;;;;;;3.90;2.80;;;;;;;30.23;16.50;100104.34;103631;281;38276;-75
2023/04/23 09:50:44;;;;;;;3.30;2.90;;;;;;;29.71;16.91;100094.98;103628;281;38215;-78
2023/04/23 09:53:20;;;;;;;4.20;3.20;;;;;;;29.46;17.49;100096.59;103542;282;38346;-75
2023/04/23 09:56:07;;;;;;;7.70;3.20;;;;;;;29.11;17.57;100093.54;103572;281;39813;-72
2023/04/23 09:58:43;;;;;;;3.10;2.60;;;;;;;28.88;18.41;100086.98;103544;281;39880;-73
2023/04/23 10:01:19;;;;;;;3.90;3.00;;;;;;;28.78;18.33;100082.86;103570;281;38217;-76
2023/04/23 10:03:56;;;;;;;;;;;;;;;28.62;18.55;100082.65;103577;282;38466;-73
2023/04/23 10:06:35;;;;;;;5.50;2.80;;;;;;;28.29;18.23;100077.56;103550;281;38209;-77
2023/04/23 10:09:15;;;;;;;3.80;2.90;;;;;;;27.98;18.66;100076.88;103551;282;38456;-76
2023/04/23 10:11:51;;;;;;;4.10;3.20;;;;;;;27.61;19.00;100076.13;103621;281;39654;-78
2023/04/23 10:14:26;;;;;;;4.40;2.80;;;;;;;27.40;19.72;100068.29;103523;281;38249;-75
2023/04/23 10:17:04;;;;;;;3.00;2.70;;;;;;;27.37;19.41;100069.58;103489;281;38816;-74
2023/04/23 10:19:39;;;;;;;;;;;;;;;27.18;19.47;100071.91;103834;279;38388;-75
2023/04/23 10:22:14;;;;;;;3.60;2.80;;;;;;;26.97;19.44;100065.74;103859;278;38267;-72
2023/04/23 10:24:57;;;;;;;4.10;3.10;;;;;;;26.77;20.03;100057.52;103798;270;38259;-76
2023/04/23 10:27:35;;;;;;;3.60;2.70;;;;;;;26.75;20.01;100053.05;103821;278;39614;-70
2023/04/23 10:30:14;;;;;;;3.90;2.90;;;;;;;26.65;20.02;100052.39;103098;278;894472;-73
2023/04/23 10:32:50;;;;;;;4.50;3.00;;;;;;;26.53;20.29;100048.28;103802;278;38247;-75
2023/04/23 10:35:24;;;;;;;6.60;2.80;;;;;;;26.53;20.93;100051.73;103815;268;39445;-71
2023/04/23 10:37:58;;;;;;;4.80;2.80;;;;;;;26.55;20.94;100045.42;103775;279;38496;-72
2023/04/23 10:40:34;;;;;;;3.50;2.90;;;;;;;26.56;20.86;100040.42;103830;278;38291;-73
2023/04/23 10:43:11;;;;;;;3.60;2.80;;;;;;;26.43;20.58;100045.80;103810;279;39403;-74
2023/04/23 10:45:52;;;;;;;5.00;3.40;;;;;;;26.27;20.43;100045.07;103820;278;38491;-76
2023/04/23 10:48:29;;;;;;;4.20;3.10;;;;;;;26.09;20.53;100033.56;103806;278;38332;-75
2023/04/23 10:51:04;;;;;;;4.70;2.90;;;;;;;25.92;20.31;100029.73;103826;279;39694;-74
2023/04/23 10:53:39;;;;;;;5.60;3.20;;;;;;;25.61;20.52;100036.06;103782;278;39447;-72
2023/04/23 10:56:13;;;;;;;7.10;2.90;;;;;;;25.45;20.91;100037.62;103826;279;39421;-74
2023/04/23 10:58:53;;;;;;;6.90;3.30;;;;;;;25.32;20.96;100033.68;103645;279;39407;-76
2023/04/23 11:01:30;;;;;;;3.40;3.00;;;;;;;25.15;20.83;100030.47;103784;278;39493;-76
2023/04/23 11:04:23;;;;;;;5.10;2.90;;;;;;;25.00;21.21;100030.41;103735;278;40019;-74
2023/04/23 11:07:01;;;;;;;3.90;2.80;;;;;;;24.86;21.34;100026.11;103730;280;38514;-76
2023/04/23 11:09:43;;;;;;;4.20;3.00;;;;;;;24.74;22.09;100017.41;103697;280;38287;-76
2023/04/23 11:12:32;;;;;;;3.20;2.70;;;;;;;24.78;22.73;100020.67;103686;280;39523;-77
2023/04/23 11:15:16;;;;;;;5.00;2.90;;;;;;;24.75;22.25;100013.70;103551;281;39463;-74
2023/04/23 11:18:03;;;;;;;4.70;2.50;;;;;;;24.75;22.25;100016.21;103687;280;38244;-77
2023/04/23 11:20:40;;;;;;;5.70;3.20;;;;;;;24.56;21.67;100012.77;103684;280;38247;-76
2023/04/23 11:23:33;;;;;;;4.60;2.60;;;;;;;24.33;21.87;100005.98;103737;280;38360;-76
2023/04/23 11:26:08;;;;;;;3.10;2.80;;;;;;;24.10;22.24;99998.92;103712;280;38253;-75
2023/04/23 11:28:43;;;;;;;6.10;2.80;;;;;;;24.02;22.30;99997.96;103694;280;38479;-74
2023/04/23 11:31:29;;;;;;;3.20;2.60;;;;;;;23.89;22.47;99999.17;103710;280;38221;-76
2023/04/23 11:34:07;;;;;;;3.50;2.30;;;;;;;23.84;22.53;99993.25;103734;280;38220;-76
2023/04/23 11:36:42;;;;;;;3.40;2.90;;;;;;;23.76;22.18;99989.84;103729;280;38368;-78
2023/04/23 11:39:19;;;;;;;5.50;3.00;;;;;;;23.64;22.27;99987.41;103689;280;38239;-75
2023/04/23 11:41:55;;;;;;;4.20;3.30;;;;;;;23.56;22.85;99990.00;103708;280;39460;-77
2023/04/23 11:44:30;;;;;;;3.40;2.60;;;;;;;23.52;23.22;99984.36;103656;280;38253;-75
2023/04/23 11:47:07;;;;;;;4.40;2.80;;;;;;;23.51;23.42;99987.62;103698;280;39428;-78
2023/04/23 11:49:42;;;;;;;4.20;2.60;;;;;;;23.53;23.35;99986.73;103660;280;38234;-77
2023/04/23 11:52:16;;;;;;;4.10;2.60;;;;;;;23.51;23.43;99984.30;103529;280;39404;-75
2023/04/23 11:54:50;;;;;;;6.00;3.40;;;;;;;23.51;23.49;99984.21;103648;280;39436;-75
2023/04/23 11:57:26;;;;;;;3.80;2.90;;;;;;;23.47;23.18;99979.30;103645;280;38289;-73
2023/04/23 12:00:03;;;;;;;4.00;3.00;;;;;;;23.37;23.04;99976.95;103613;280;38240;-72
2023/04/23 12:02:37;;;;;;;4.30;3.10;;;;;;;23.26;23.14;99979.98;103631;280;39416;-70